Weather History for Grosse Ile, MI

Change the Weather History Date:

Sunday, June 30, 2013

  Actual Average (KDTW) Record (KDTW)
Temperature  
Mean Temperature 70 °F 73 °F  
Max Temperature 75 °F 83 °F 96 °F (1931)
Min Temperature 64 °F 63 °F 47 °F (1943)
Degree Days  
Heating Degree Days 0 0  
Month to date heating degree days 34  
Since 1 June heating degree days 35  
Since 1 July heating degree days 6137  
Cooling Degree Days 4 8  
Month to date cooling degree days 167  
Year to date cooling degree days 215  
Since 1 June cooling degree days 167  
Growing Degree Days 20 (Base 50)    
Moisture  
Dew Point 60 °F    
Average Humidity 72    
Maximum Humidity 88    
Minimum Humidity 53    
Precipitation  
Precipitation 0.00 in 0.11 in 1.08 in (1902)
Month to date precipitation 3.52  
Year to date precipitation 16.06  
Snow  
Snow 0.00 in 0.00 in 0.00 in ()
Month to date snowfall 0.0  
Since 1 June snowfall 0.0  
Since 1 July snowfall 42.5  
Snow Depth -    
Sea Level Pressure  
Sea Level Pressure 29.83 in    
Wind  
Wind Speed 8 mph (NE)    
Max Wind Speed 15 mph    
Max Gust Speed 21 mph    
Visibility 10 miles    
Events Rain    
T = Trace of Precipitation, MM = Missing Value Source: NWS Daily Summary

Daily Weather History Graph

Daily Weather History Graph

Search for Another Location

Airport:

Trip Planner

Search our weather history database for the weather conditions in past years. The results will help you decide how hot, cold, wet, or windy it might be!

Date:

Astronomy

Jun. 30, 2013 Rise Set
Actual Time 6:00 AM EDT 9:12 PM EDT
Civil Twilight 5:25 AM EDT 9:46 PM EDT
Nautical Twilight 4:41 AM EDT 10:30 PM EDT
Astronomical Twilight 3:48 AM EDT 11:24 PM EDT
Moon 1:03 AM EDT (6/30) 2:21 PM EDT (6/30)
Length of Visible Light 16h 21m
Length of Day
15h 12m
Last Quarter, 45% of the Moon is Illuminated
Jun 30
Last Quarter
Jul 8
New
Jul 15
First Quarter
Jul 22
Full
Jul 29
Last Quarter

Hourly Weather History & Observations

Time (EDT) Temp. Dew Point Humidity Pressure Visibility Wind Dir Wind Speed Gust Speed Precip Events Conditions
12:14 AM 66.2 °F 57.2 °F 73% 29.72 in 10.0 mi NNE 6.9 mph - N/A   Overcast
12:34 AM 66.2 °F 59.0 °F 78% 29.73 in 10.0 mi NNE 5.8 mph - N/A   Mostly Cloudy
12:54 AM 66.2 °F 59.0 °F 78% 29.73 in 10.0 mi NNE 6.9 mph - N/A   Mostly Cloudy
1:14 AM 66.2 °F 60.8 °F 83% 29.73 in 10.0 mi NNE 9.2 mph - N/A   Mostly Cloudy
1:34 AM 66.2 °F 60.8 °F 83% 29.73 in 10.0 mi NNE 8.1 mph - N/A   Mostly Cloudy
1:54 AM 66.2 °F 60.8 °F 83% 29.74 in 10.0 mi NNE 10.4 mph - N/A   Scattered Clouds
2:14 AM 66.2 °F 60.8 °F 83% 29.74 in 10.0 mi NNE 8.1 mph - N/A   Scattered Clouds
2:34 AM 66.2 °F 60.8 °F 83% 29.75 in 10.0 mi NE 11.5 mph - N/A   Scattered Clouds
2:55 AM 66.2 °F 60.8 °F 83% 29.75 in 10.0 mi NE 9.2 mph - N/A   Mostly Cloudy
3:14 AM 66.2 °F 60.8 °F 83% 29.75 in 10.0 mi NE 9.2 mph - N/A   Scattered Clouds
3:34 AM 66.2 °F 60.8 °F 83% 29.75 in 10.0 mi NE 8.1 mph - N/A   Scattered Clouds
3:54 AM 66.2 °F 60.8 °F 83% 29.75 in 10.0 mi NNE 8.1 mph - N/A   Overcast
4:14 AM 64.4 °F 60.8 °F 88% 29.75 in 10.0 mi NNE 6.9 mph - N/A Rain Light Rain
4:34 AM 64.4 °F 60.8 °F 88% 29.75 in 10.0 mi NNE 8.1 mph - N/A   Mostly Cloudy
4:54 AM 64.4 °F 60.8 °F 88% 29.75 in 10.0 mi NNE 6.9 mph - N/A   Mostly Cloudy
5:14 AM 64.4 °F 60.8 °F 88% 29.77 in 10.0 mi NE 5.8 mph - N/A   Overcast
5:34 AM 64.4 °F 60.8 °F 88% 29.77 in 10.0 mi NNE 5.8 mph - N/A   Overcast
5:54 AM 64.4 °F 59.0 °F 83% 29.77 in 10.0 mi NNE 6.9 mph - N/A   Overcast
6:14 AM 66.2 °F 60.8 °F 83% 29.77 in 10.0 mi North 5.8 mph - N/A   Overcast
6:34 AM 66.2 °F 60.8 °F 83% 29.77 in 10.0 mi North 6.9 mph - N/A   Overcast
6:54 AM 66.2 °F 60.8 °F 83% 29.78 in 10.0 mi North 3.5 mph - N/A   Overcast
7:14 AM 66.2 °F 60.8 °F 83% 29.79 in 10.0 mi North 3.5 mph - N/A   Overcast
7:34 AM 66.2 °F 60.8 °F 83% 29.79 in 10.0 mi North 4.6 mph - N/A   Overcast
7:54 AM 66.2 °F 60.8 °F 83% 29.80 in 10.0 mi North 3.5 mph - N/A   Mostly Cloudy
8:14 AM 66.2 °F 60.8 °F 83% 29.80 in 10.0 mi North 4.6 mph - N/A   Mostly Cloudy
8:34 AM 66.2 °F 60.8 °F 83% 29.81 in 10.0 mi North 5.8 mph - N/A   Mostly Cloudy
8:54 AM 66.2 °F 60.8 °F 83% 29.81 in 10.0 mi NNE 4.6 mph - N/A   Mostly Cloudy
9:14 AM 68.0 °F 60.8 °F 78% 29.82 in 10.0 mi NE 5.8 mph - N/A   Scattered Clouds
9:34 AM 69.8 °F 60.8 °F 73% 29.82 in 10.0 mi NNE 8.1 mph - N/A   Clear
9:54 AM 69.8 °F 60.8 °F 73% 29.83 in 10.0 mi NNE 10.4 mph - N/A   Clear
10:14 AM 69.8 °F 60.8 °F 73% 29.83 in 10.0 mi NE 11.5 mph - N/A   Clear
10:34 AM 69.8 °F 59.0 °F 68% 29.83 in 10.0 mi NE 11.5 mph - N/A   Clear
10:55 AM 69.8 °F 59.0 °F 68% 29.84 in 10.0 mi NE 12.7 mph - N/A   Clear
11:14 AM 69.8 °F 60.8 °F 73% 29.85 in 10.0 mi NE 6.9 mph - N/A   Clear
11:34 AM 69.8 °F 60.8 °F 73% 29.85 in 10.0 mi NE 8.1 mph - N/A   Clear
11:54 AM 71.6 °F 59.0 °F 64% 29.85 in 10.0 mi NE 9.2 mph - N/A   Clear
12:14 PM 69.8 °F 60.8 °F 73% 29.85 in 10.0 mi NE 6.9 mph - N/A   Clear
12:34 PM 69.8 °F 60.8 °F 73% 29.85 in 10.0 mi NE 10.4 mph - N/A   Clear
12:54 PM 69.8 °F 59.0 °F 68% 29.86 in 10.0 mi NE 10.4 mph - N/A   Clear
1:14 PM 71.6 °F 59.0 °F 64% 29.86 in 10.0 mi ENE 8.1 mph - N/A   Clear
1:34 PM 71.6 °F 60.8 °F 69% 29.86 in 10.0 mi ENE 11.5 mph - N/A   Clear
1:54 PM 71.6 °F 60.8 °F 69% 29.86 in 10.0 mi NE 10.4 mph - N/A   Clear
2:14 PM 73.4 °F 60.8 °F 65% 29.86 in 10.0 mi NE 12.7 mph - N/A   Clear
2:34 PM 71.6 °F 60.8 °F 69% 29.86 in 10.0 mi ENE 9.2 mph - N/A   Clear
2:54 PM 73.4 °F 60.8 °F 65% 29.85 in 10.0 mi ENE 9.2 mph - N/A   Clear
3:14 PM 73.4 °F 60.8 °F 65% 29.85 in 10.0 mi NE 8.1 mph - N/A   Clear
3:34 PM 73.4 °F 60.8 °F 65% 29.85 in 10.0 mi NE 10.4 mph - N/A   Clear
3:54 PM 73.4 °F 59.0 °F 61% 29.85 in 10.0 mi NE 12.7 mph 18.4 mph N/A   Clear
4:14 PM 75.2 °F 60.8 °F 61% 29.85 in 10.0 mi NE 12.7 mph 17.3 mph N/A   Clear
4:34 PM 73.4 °F 60.8 °F 65% 29.85 in 10.0 mi NE 13.8 mph 18.4 mph N/A   Clear
4:54 PM 73.4 °F 60.8 °F 65% 29.85 in 10.0 mi NE 9.2 mph - N/A   Clear
5:14 PM 75.2 °F 60.8 °F 61% 29.85 in 10.0 mi NE 15.0 mph - N/A   Clear
5:34 PM 75.2 °F 60.8 °F 61% 29.85 in 10.0 mi NE 13.8 mph 19.6 mph N/A   Clear
5:54 PM 75.2 °F 59.0 °F 57% 29.86 in 10.0 mi NE 12.7 mph 19.6 mph N/A   Clear
6:14 PM 75.2 °F 57.2 °F 53% 29.86 in 10.0 mi NE 15.0 mph - N/A   Clear
6:34 PM 75.2 °F 57.2 °F 53% 29.87 in 10.0 mi NNE 15.0 mph - N/A   Clear
6:54 PM 75.2 °F 59.0 °F 57% 29.87 in 10.0 mi NE 13.8 mph 20.7 mph N/A   Clear
7:14 PM 75.2 °F 57.2 °F 53% 29.87 in 10.0 mi NE 15.0 mph 20.7 mph N/A   Clear
7:34 PM 73.4 °F 57.2 °F 57% 29.88 in 10.0 mi NE 9.2 mph - N/A   Clear
7:55 PM 73.4 °F 59.0 °F 61% 29.89 in 10.0 mi NE 12.7 mph - N/A   Clear
8:14 PM 73.4 °F 59.0 °F 61% 29.89 in 10.0 mi NE 11.5 mph 16.1 mph N/A   Clear
8:34 PM 73.4 °F 60.8 °F 65% 29.89 in 10.0 mi NE 8.1 mph - N/A   Clear
8:55 PM 71.6 °F 59.0 °F 64% 29.89 in 10.0 mi NE 8.1 mph - N/A   Clear
9:14 PM 71.6 °F 59.0 °F 64% 29.90 in 10.0 mi NNE 5.8 mph - N/A   Clear
9:34 PM 69.8 °F 59.0 °F 68% 29.90 in 10.0 mi NE 6.9 mph - N/A   Clear
9:54 PM 69.8 °F 57.2 °F 64% 29.91 in 10.0 mi NE 6.9 mph - N/A   Scattered Clouds
10:14 PM 69.8 °F 57.2 °F 64% 29.91 in 10.0 mi NE 8.1 mph - N/A   Scattered Clouds
10:34 PM 68.0 °F 57.2 °F 68% 29.92 in 10.0 mi NE 9.2 mph - N/A   Clear
10:54 PM 66.2 °F 57.2 °F 73% 29.93 in 10.0 mi NE 9.2 mph - N/A   Clear
11:14 PM 66.2 °F 57.2 °F 73% 29.93 in 10.0 mi NE 5.8 mph - N/A   Clear
11:34 PM 66.2 °F 55.4 °F 68% 29.92 in 10.0 mi North 9.2 mph - N/A   Clear
11:54 PM 66.2 °F 50.0 °F 56% 29.93 in 10.0 mi NNE 12.7 mph - N/A   Scattered Clouds